createdAt,value
2023-05-17T00:00:01.061Z,1017.91
2023-05-17T00:01:01.080Z,1017.86
2023-05-17T00:02:01.411Z,1017.85
2023-05-17T00:03:01.978Z,1017.87
2023-05-17T00:04:01.208Z,1017.82
2023-05-17T00:05:01.182Z,1017.85
2023-05-17T00:06:03.557Z,1017.79
2023-05-17T00:07:01.103Z,1017.83
2023-05-17T00:08:01.499Z,1017.78
2023-05-17T00:09:00.797Z,1017.78
2023-05-17T00:10:00.376Z,1017.84
2023-05-17T00:11:04.488Z,1017.81
2023-05-17T00:12:01.117Z,1017.8
2023-05-17T00:13:01.553Z,1017.85
2023-05-17T00:14:01.529Z,1017.83
2023-05-17T00:15:01.240Z,1017.82
2023-05-17T00:16:09.292Z,1017.83
2023-05-17T00:17:01.061Z,1017.8
2023-05-17T00:18:01.177Z,1017.82
2023-05-17T00:19:02.424Z,1017.78
2023-05-17T00:20:04.027Z,1017.82
2023-05-17T00:21:11.035Z,1017.82
2023-05-17T00:22:01.181Z,1017.8
2023-05-17T00:23:01.093Z,1017.79
2023-05-17T00:24:01.101Z,1017.84
2023-05-17T00:25:01.205Z,1017.8
2023-05-17T00:26:15.061Z,1017.82
2023-05-17T00:27:01.286Z,1017.83
2023-05-17T00:28:01.304Z,1017.84
2023-05-17T00:29:01.306Z,1017.86
2023-05-17T00:30:01.336Z,1017.87
2023-05-17T00:31:16.906Z,1017.88
2023-05-17T00:32:01.406Z,1017.87
2023-05-17T00:33:01.126Z,1017.89
2023-05-17T00:34:01.079Z,1017.91
2023-05-17T00:35:01.967Z,1017.94
2023-05-17T00:36:01.506Z,1017.91
2023-05-17T00:37:01.065Z,1017.97
2023-05-17T00:38:01.399Z,1017.9
2023-05-17T00:39:01.160Z,1017.93
2023-05-17T00:40:01.089Z,1017.95
2023-05-17T00:41:01.029Z,1017.97
2023-05-17T00:42:01.092Z,1018.01
2023-05-17T00:43:01.119Z,1018.03
2023-05-17T00:44:01.628Z,1018.07
2023-05-17T00:45:01.441Z,1018.08
2023-05-17T00:46:01.120Z,1018.04
2023-05-17T00:47:01.141Z,1018.06
2023-05-17T00:48:01.145Z,1018.06
2023-05-17T00:49:01.051Z,1018.03
2023-05-17T00:50:01.050Z,1018.03
2023-05-17T00:51:01.021Z,1018.04
2023-05-17T00:52:01.448Z,1018.06
2023-05-17T00:53:01.366Z,1018.04
2023-05-17T00:54:03.210Z,1018.05
2023-05-17T00:55:02.278Z,1018.04
2023-05-17T00:56:01.839Z,1018.05
2023-05-17T00:57:01.767Z,1018.06
2023-05-17T00:58:01.677Z,1018.04
2023-05-17T00:59:01.313Z,1018.1
2023-05-17T01:00:01.835Z,1018.12
2023-05-17T01:01:02.581Z,1018.09
2023-05-17T01:02:01.144Z,1018.12
2023-05-17T01:03:01.459Z,1018.12
2023-05-17T01:04:01.839Z,1018.06
2023-05-17T01:05:01.955Z,1018.05
2023-05-17T01:06:02.589Z,1018.03
2023-05-17T01:07:01.043Z,1018.1
2023-05-17T01:08:01.034Z,1018.11
2023-05-17T01:09:01.139Z,1018.11
2023-05-17T01:10:01.475Z,1018.12
2023-05-17T01:11:01.232Z,1018.1
2023-05-17T01:12:01.096Z,1018.08
2023-05-17T01:13:01.087Z,1018.1
2023-05-17T01:14:01.274Z,1018.08
2023-05-17T01:15:01.155Z,1018.01
2023-05-17T01:16:01.142Z,1018.03
2023-05-17T01:17:01.129Z,1018.05
2023-05-17T01:18:01.196Z,1018.06
2023-05-17T01:19:01.464Z,1018.01
2023-05-17T01:20:02.419Z,1017.99
2023-05-17T01:21:01.834Z,1018.01
2023-05-17T01:22:01.037Z,1018.06
2023-05-17T01:23:00.727Z,1018.07
2023-05-17T01:24:00.442Z,1018.01
2023-05-17T01:25:00.321Z,1018.06
2023-05-17T01:25:59.920Z,1018.06
2023-05-17T01:26:59.626Z,1018.05
2023-05-17T01:28:02.143Z,1018.04
2023-05-17T01:29:01.195Z,1018.04
2023-05-17T01:30:01.101Z,1018.05
2023-05-17T01:31:01.105Z,1018.05
2023-05-17T01:32:01.322Z,1018.04
2023-05-17T01:33:01.280Z,1018.04
2023-05-17T01:34:01.567Z,1018.04
2023-05-17T01:35:01.058Z,1018.16
2023-05-17T01:36:01.446Z,1018.11
2023-05-17T01:37:01.427Z,1018.17
2023-05-17T01:38:01.102Z,1018.06
2023-05-17T01:39:01.071Z,1018.14
2023-05-17T01:40:01.155Z,1018.17
2023-05-17T01:41:01.072Z,1018.15
2023-05-17T01:42:01.197Z,1018.19
2023-05-17T01:43:01.270Z,1018.15
2023-05-17T01:44:01.653Z,1018.22
2023-05-17T01:45:02.004Z,1018.2
2023-05-17T01:46:01.093Z,1018.22
2023-05-17T01:47:03.419Z,1018.26
2023-05-17T01:48:01.236Z,1018.23
2023-05-17T01:49:01.321Z,1018.28
2023-05-17T01:50:01.226Z,1018.31
2023-05-17T01:51:01.438Z,1018.29
2023-05-17T01:52:05.671Z,1018.29
2023-05-17T01:53:01.312Z,1018.29
2023-05-17T01:54:01.036Z,1018.28
2023-05-17T01:55:00.865Z,1018.24
2023-05-17T01:56:01.490Z,1018.27
2023-05-17T01:57:07.047Z,1018.23
2023-05-17T01:58:01.751Z,1018.2
2023-05-17T01:59:03.838Z,1018.2
2023-05-17T02:00:01.791Z,1018.16
2023-05-17T02:01:02.104Z,1018.17
2023-05-17T02:02:09.180Z,1018.11
2023-05-17T02:03:01.224Z,1018.08
2023-05-17T02:04:00.920Z,1018.18
2023-05-17T02:05:00.672Z,1018.17
2023-05-17T02:06:00.405Z,1018.22
2023-05-17T02:07:11.094Z,1018.22
2023-05-17T02:08:01.164Z,1018.21
2023-05-17T02:09:01.466Z,1018.21
2023-05-17T02:10:01.039Z,1018.19
2023-05-17T02:11:01.072Z,1018.14
2023-05-17T02:12:14.954Z,1018.21
2023-05-17T02:13:01.175Z,1018.21
2023-05-17T02:14:01.072Z,1018.29
2023-05-17T02:15:01.458Z,1018.31
2023-05-17T02:16:01.493Z,1018.25
2023-05-17T02:17:01.219Z,1018.28
2023-05-17T02:18:01.201Z,1018.25
2023-05-17T02:19:01.042Z,1018.29
2023-05-17T02:20:01.109Z,1018.24
2023-05-17T02:21:01.131Z,1018.19
2023-05-17T02:22:01.114Z,1018.23
2023-05-17T02:23:01.293Z,1018.21
2023-05-17T02:24:01.301Z,1018.22
2023-05-17T02:25:02.249Z,1018.19
2023-05-17T02:26:01.065Z,1018.16
2023-05-17T02:27:01.197Z,1018.15
2023-05-17T02:28:01.073Z,1018.17
2023-05-17T02:29:01.073Z,1018.13
2023-05-17T02:30:01.045Z,1018.2
2023-05-17T02:31:01.519Z,1018.21
2023-05-17T02:32:01.101Z,1018.24
2023-05-17T02:33:01.296Z,1018.22
2023-05-17T02:34:02.318Z,1018.26
2023-05-17T02:35:03.041Z,1018.33
2023-05-17T02:36:02.678Z,1018.32
2023-05-17T02:37:01.120Z,1018.3
2023-05-17T02:38:01.139Z,1018.31
2023-05-17T02:39:01.412Z,1018.37
2023-05-17T02:40:02.103Z,1018.31
2023-05-17T02:41:01.039Z,1018.32
2023-05-17T02:42:00.667Z,1018.37
2023-05-17T02:43:00.213Z,1018.37
2023-05-17T02:43:59.826Z,1018.39
2023-05-17T02:45:01.469Z,1018.4
2023-05-17T02:46:01.447Z,1018.39
2023-05-17T02:47:01.211Z,1018.43
2023-05-17T02:48:01.236Z,1018.37
2023-05-17T02:49:01.085Z,1018.4
2023-05-17T02:50:01.237Z,1018.38
2023-05-17T02:51:01.113Z,1018.39
2023-05-17T02:52:01.807Z,1018.41
2023-05-17T02:53:00.817Z,1018.4
2023-05-17T02:54:00.532Z,1018.43
2023-05-17T02:55:00.431Z,1018.42
2023-05-17T02:56:00.479Z,1018.45
2023-05-17T02:57:00.045Z,1018.41
2023-05-17T02:57:59.604Z,1018.49
2023-05-17T02:59:01.719Z,1018.54
2023-05-17T03:00:01.749Z,1018.53
2023-05-17T03:01:01.747Z,1018.56
2023-05-17T03:02:01.084Z,1018.66
2023-05-17T03:03:01.302Z,1018.63
2023-05-17T03:04:01.471Z,1018.65
2023-05-17T03:05:01.179Z,1018.67
2023-05-17T03:06:01.810Z,1018.68
2023-05-17T03:07:04.361Z,1018.74
2023-05-17T03:08:01.403Z,1018.78
2023-05-17T03:09:00.951Z,1018.75
2023-05-17T03:10:01.236Z,1018.77
2023-05-17T03:11:01.119Z,1018.79
2023-05-17T03:12:01.032Z,1018.81
2023-05-17T03:13:00.725Z,1018.84
2023-05-17T03:14:00.721Z,1018.83
2023-05-17T03:15:00.280Z,1018.88
2023-05-17T03:16:00.045Z,1018.92
2023-05-17T03:16:59.744Z,1018.93
2023-05-17T03:18:02.262Z,1018.93
2023-05-17T03:19:01.211Z,1018.99
2023-05-17T03:20:01.089Z,1019
2023-05-17T03:21:01.136Z,1019.03
2023-05-17T03:22:01.136Z,1019.05
2023-05-17T03:23:01.491Z,1019.09
2023-05-17T03:24:01.114Z,1019.1
2023-05-17T03:25:01.117Z,1019.06
2023-05-17T03:26:01.119Z,1019.09
2023-05-17T03:27:01.123Z,1019.1
2023-05-17T03:28:00.789Z,1019.13
2023-05-17T03:29:00.518Z,1019.09
2023-05-17T03:30:00.138Z,1019.08
2023-05-17T03:31:00.101Z,1019.04
2023-05-17T03:31:59.732Z,1019.01
2023-05-17T03:33:04.858Z,1019.02
2023-05-17T03:34:01.831Z,1019.01
2023-05-17T03:35:00.741Z,1019.01
2023-05-17T03:36:00.480Z,1019.02
2023-05-17T03:37:00.055Z,1019.03
2023-05-17T03:38:07.483Z,1019.05
2023-05-17T03:39:01.093Z,1019.09
2023-05-17T03:40:01.106Z,1019.12
2023-05-17T03:41:01.108Z,1019.14
2023-05-17T03:42:00.599Z,1019.13
2023-05-17T03:43:11.475Z,1019.14
2023-05-17T03:44:02.165Z,1019.14
2023-05-17T03:45:01.380Z,1019.15
2023-05-17T03:46:02.377Z,1019.15
2023-05-17T03:47:01.053Z,1019.17
2023-05-17T03:48:14.365Z,1019.18
2023-05-17T03:49:01.138Z,1019.2
2023-05-17T03:50:01.387Z,1019.24
2023-05-17T03:51:01.478Z,1019.24
2023-05-17T03:52:02.232Z,1019.2
2023-05-17T03:53:01.673Z,1019.17
2023-05-17T03:54:01.190Z,1019.19
2023-05-17T03:55:01.992Z,1019.23
2023-05-17T03:56:01.215Z,1019.23
2023-05-17T03:57:01.116Z,1019.28
2023-05-17T03:58:01.245Z,1019.27
2023-05-17T03:59:01.078Z,1019.32
2023-05-17T04:00:01.338Z,1019.28
2023-05-17T04:01:01.071Z,1019.34
2023-05-17T04:02:01.047Z,1019.35
2023-05-17T04:03:01.152Z,1019.37
2023-05-17T04:04:01.090Z,1019.39
2023-05-17T04:05:01.156Z,1019.38
2023-05-17T04:06:01.021Z,1019.37
2023-05-17T04:07:00.684Z,1019.43
2023-05-17T04:08:00.381Z,1019.38
2023-05-17T04:09:00.109Z,1019.39
2023-05-17T04:09:59.980Z,1019.39
2023-05-17T04:10:59.774Z,1019.4
2023-05-17T04:12:01.632Z,1019.36
2023-05-17T04:13:01.425Z,1019.4
2023-05-17T04:14:01.847Z,1019.41
2023-05-17T04:15:01.066Z,1019.38
2023-05-17T04:16:01.050Z,1019.39
2023-05-17T04:17:01.038Z,1019.38
2023-05-17T04:18:01.152Z,1019.34
2023-05-17T04:19:01.911Z,1019.3
2023-05-17T04:20:02.220Z,1019.3
2023-05-17T04:21:01.125Z,1019.32
2023-05-17T04:22:01.069Z,1019.32
2023-05-17T04:23:02.372Z,1019.34
2023-05-17T04:24:01.914Z,1019.35
2023-05-17T04:25:01.992Z,1019.33
2023-05-17T04:26:01.603Z,1019.35
2023-05-17T04:27:03.501Z,1019.36
2023-05-17T04:28:01.177Z,1019.35
2023-05-17T04:29:01.103Z,1019.41
2023-05-17T04:30:01.946Z,1019.39
2023-05-17T04:31:01.148Z,1019.36
2023-05-17T04:32:01.547Z,1019.36
2023-05-17T04:33:01.623Z,1019.36
2023-05-17T04:34:04.128Z,1019.39
2023-05-17T04:35:01.579Z,1019.35
2023-05-17T04:36:01.076Z,1019.34
2023-05-17T04:37:01.056Z,1019.32
2023-05-17T04:38:03.987Z,1019.33
2023-05-17T04:39:01.869Z,1019.35
2023-05-17T04:40:01.081Z,1019.33
2023-05-17T04:41:01.083Z,1019.36
2023-05-17T04:42:01.022Z,1019.32
2023-05-17T04:43:01.510Z,1019.35
2023-05-17T04:44:02.045Z,1019.34
2023-05-17T04:45:01.117Z,1019.32
2023-05-17T04:46:01.310Z,1019.37
2023-05-17T04:47:01.132Z,1019.39
2023-05-17T04:48:01.624Z,1019.36
2023-05-17T04:49:01.073Z,1019.36
2023-05-17T04:50:00.569Z,1019.35
2023-05-17T04:51:00.390Z,1019.38
2023-05-17T04:52:00.122Z,1019.32
2023-05-17T04:52:59.727Z,1019.34
2023-05-17T04:54:01.321Z,1019.35
2023-05-17T04:55:02.011Z,1019.36
2023-05-17T04:56:02.453Z,1019.35
2023-05-17T04:57:01.309Z,1019.42
2023-05-17T04:58:02.041Z,1019.41
2023-05-17T04:59:02.574Z,1019.39
2023-05-17T05:00:01.037Z,1019.5
2023-05-17T05:01:02.041Z,1019.47
2023-05-17T05:02:01.007Z,1019.45
2023-05-17T05:03:01.240Z,1019.47
2023-05-17T05:04:02.563Z,1019.45
2023-05-17T05:05:02.169Z,1019.5
2023-05-17T05:06:02.121Z,1019.52
2023-05-17T05:07:02.263Z,1019.58
2023-05-17T05:08:01.076Z,1019.58
2023-05-17T05:09:01.138Z,1019.61
2023-05-17T05:10:00.735Z,1019.62
2023-05-17T05:11:00.655Z,1019.6
2023-05-17T05:12:00.372Z,1019.58
2023-05-17T05:13:00.396Z,1019.6
2023-05-17T05:14:00.334Z,1019.56
2023-05-17T05:15:01.206Z,1019.52
2023-05-17T05:16:02.222Z,1019.51
2023-05-17T05:17:01.322Z,1019.53
2023-05-17T05:18:01.229Z,1019.49
2023-05-17T05:19:02.989Z,1019.44
2023-05-17T05:20:02.488Z,1019.42
2023-05-17T05:21:01.045Z,1019.44
2023-05-17T05:22:01.068Z,1019.4
2023-05-17T05:23:01.076Z,1019.41
2023-05-17T05:24:05.231Z,1019.42
2023-05-17T05:25:01.563Z,1019.44
2023-05-17T05:26:01.362Z,1019.44
2023-05-17T05:27:02.133Z,1019.5
2023-05-17T05:28:02.140Z,1019.51
2023-05-17T05:29:07.613Z,1019.46
2023-05-17T05:30:01.006Z,1019.54
2023-05-17T05:31:01.130Z,1019.59
2023-05-17T05:32:01.116Z,1019.59
2023-05-17T05:33:00.958Z,1019.57
2023-05-17T05:34:11.436Z,1019.57
2023-05-17T05:35:01.222Z,1019.58
2023-05-17T05:36:01.580Z,1019.58
2023-05-17T05:37:01.945Z,1019.59
2023-05-17T05:38:01.071Z,1019.58
2023-05-17T05:39:15.168Z,1019.55
2023-05-17T05:40:01.610Z,1019.55
2023-05-17T05:41:01.421Z,1019.55
2023-05-17T05:42:02.124Z,1019.52
2023-05-17T05:43:01.987Z,1019.59
2023-05-17T05:44:16.745Z,1019.55
2023-05-17T05:45:01.111Z,1019.59
2023-05-17T05:46:01.113Z,1019.6
2023-05-17T05:47:01.144Z,1019.62
2023-05-17T05:48:01.305Z,1019.64
2023-05-17T05:49:01.272Z,1019.6
2023-05-17T05:50:01.125Z,1019.62
2023-05-17T05:51:01.125Z,1019.67
2023-05-17T05:52:01.035Z,1019.64
2023-05-17T05:53:14.344Z,1019.63
2023-05-17T05:54:02.364Z,1019.68
2023-05-17T05:55:01.164Z,1019.71
2023-05-17T05:56:01.051Z,1019.73
2023-05-17T05:57:01.078Z,1019.77
2023-05-17T05:58:01.087Z,1019.83
2023-05-17T05:59:01.122Z,1019.79
2023-05-17T06:00:01.067Z,1019.85
2023-05-17T06:01:04.101Z,1019.81
2023-05-17T06:02:01.163Z,1019.81
2023-05-17T06:03:01.192Z,1019.86
2023-05-17T06:04:01.130Z,1019.81
2023-05-17T06:05:01.017Z,1019.83
2023-05-17T06:06:01.290Z,1019.82
2023-05-17T06:07:02.326Z,1019.86
2023-05-17T06:08:03.368Z,1019.9
2023-05-17T06:09:02.904Z,1019.85
2023-05-17T06:10:01.089Z,1019.85
2023-05-17T06:11:01.222Z,1019.89
2023-05-17T06:12:01.044Z,1019.96
2023-05-17T06:13:00.863Z,1019.96
2023-05-17T06:14:01.471Z,1020.01
2023-05-17T06:15:01.067Z,1020.01
2023-05-17T06:16:01.762Z,1020.1
2023-05-17T06:17:02.017Z,1020.09
2023-05-17T06:18:00.706Z,1020.1
2023-05-17T06:19:00.567Z,1020.15
2023-05-17T06:20:00.383Z,1020.12
2023-05-17T06:21:00.084Z,1020.16
2023-05-17T06:21:59.674Z,1020.14
2023-05-17T06:23:02.111Z,1020.2
2023-05-17T06:24:04.773Z,1020.21
2023-05-17T06:25:01.450Z,1020.19
2023-05-17T06:26:01.140Z,1020.14
2023-05-17T06:27:01.083Z,1020.13
2023-05-17T06:28:01.082Z,1020.2
2023-05-17T06:29:02.096Z,1020.11
2023-05-17T06:30:01.708Z,1020.18
2023-05-17T06:31:01.175Z,1020.17
2023-05-17T06:32:01.483Z,1020.21
2023-05-17T06:33:01.279Z,1020.22
2023-05-17T06:34:01.249Z,1020.25
2023-05-17T06:35:01.620Z,1020.24
2023-05-17T06:37:01.068Z,1020.31
2023-05-17T06:38:01.125Z,1020.29
2023-05-17T06:39:01.146Z,1020.35
2023-05-17T06:40:09.981Z,1020.31
2023-05-17T06:41:01.520Z,1020.31
2023-05-17T06:42:02.182Z,1020.31
2023-05-17T06:43:01.099Z,1020.3
2023-05-17T06:44:01.052Z,1020.27
2023-05-17T06:45:01.095Z,1020.29
2023-05-17T06:46:01.089Z,1020.3
2023-05-17T06:47:01.115Z,1020.27
2023-05-17T06:48:01.183Z,1020.31
2023-05-17T06:49:02.080Z,1020.34
2023-05-17T06:50:01.910Z,1020.32
2023-05-17T06:51:01.179Z,1020.39
2023-05-17T06:52:01.107Z,1020.34
2023-05-17T06:53:00.935Z,1020.41
2023-05-17T06:54:01.151Z,1020.47
2023-05-17T06:55:01.143Z,1020.44
2023-05-17T06:56:01.039Z,1020.43
2023-05-17T06:57:01.036Z,1020.41
2023-05-17T06:58:01.096Z,1020.42
2023-05-17T06:59:01.132Z,1020.5
2023-05-17T07:00:01.089Z,1020.54
2023-05-17T07:01:01.087Z,1020.5
2023-05-17T07:02:01.030Z,1020.52
2023-05-17T07:03:01.251Z,1020.51
2023-05-17T07:04:01.230Z,1020.57
2023-05-17T07:05:01.155Z,1020.57
2023-05-17T07:06:01.098Z,1020.63
2023-05-17T07:07:01.523Z,1020.69
2023-05-17T07:08:01.220Z,1020.65
2023-05-17T07:09:01.106Z,1020.67
2023-05-17T07:10:03.696Z,1020.63
2023-05-17T07:11:01.779Z,1020.7
2023-05-17T07:12:01.019Z,1020.7
2023-05-17T07:13:01.361Z,1020.63
2023-05-17T07:14:02.603Z,1020.72
2023-05-17T07:15:06.941Z,1020.68
2023-05-17T07:16:02.131Z,1020.71
2023-05-17T07:17:02.199Z,1020.7
2023-05-17T07:18:01.217Z,1020.68
2023-05-17T07:19:01.923Z,1020.68
2023-05-17T07:20:11.093Z,1020.66
2023-05-17T07:21:01.465Z,1020.71
2023-05-17T07:22:01.485Z,1020.67
2023-05-17T07:23:01.215Z,1020.66
2023-05-17T07:24:01.130Z,1020.62
2023-05-17T07:25:12.805Z,1020.65
2023-05-17T07:26:01.704Z,1020.64
2023-05-17T07:27:01.333Z,1020.6
2023-05-17T07:28:01.821Z,1020.68
2023-05-17T07:29:01.974Z,1020.59
2023-05-17T07:30:15.114Z,1020.6
2023-05-17T07:31:01.074Z,1020.6
2023-05-17T07:32:01.052Z,1020.74
2023-05-17T07:33:01.146Z,1020.68
2023-05-17T07:34:01.515Z,1020.76
2023-05-17T07:35:01.097Z,1020.74
2023-05-17T07:36:02.267Z,1020.79
2023-05-17T07:37:02.021Z,1020.8
2023-05-17T07:38:01.170Z,1020.87
2023-05-17T07:39:01.099Z,1020.85
2023-05-17T07:40:01.584Z,1020.86
2023-05-17T07:41:01.145Z,1020.86
2023-05-17T07:42:02.836Z,1020.84
2023-05-17T07:43:01.214Z,1020.88
2023-05-17T07:44:01.040Z,1020.85
2023-05-17T07:45:01.318Z,1020.87
2023-05-17T07:46:01.109Z,1020.88
2023-05-17T07:47:01.210Z,1020.89
2023-05-17T07:48:01.159Z,1020.85
2023-05-17T07:49:02.032Z,1020.88
2023-05-17T07:50:01.084Z,1020.87
2023-05-17T07:51:01.128Z,1020.76
2023-05-17T07:52:01.125Z,1020.91
2023-05-17T07:53:00.856Z,1020.95
2023-05-17T07:54:01.212Z,1020.9
2023-05-17T07:55:01.091Z,1020.96
2023-05-17T07:56:01.123Z,1020.9
2023-05-17T07:57:01.036Z,1020.98
2023-05-17T07:58:00.728Z,1020.98
2023-05-17T07:59:00.305Z,1020.92
2023-05-17T07:59:59.911Z,1020.88
2023-05-17T08:00:59.708Z,1020.89
2023-05-17T08:02:02.069Z,1020.85
2023-05-17T08:03:01.390Z,1020.85
2023-05-17T08:04:01.432Z,1020.88
2023-05-17T08:05:01.094Z,1020.9
2023-05-17T08:06:01.173Z,1020.86
2023-05-17T08:07:02.523Z,1020.86
2023-05-17T08:08:01.392Z,1020.88
2023-05-17T08:09:02.050Z,1020.84
2023-05-17T08:10:01.574Z,1020.82
2023-05-17T08:11:01.122Z,1020.86
2023-05-17T08:12:01.127Z,1020.93
2023-05-17T08:13:00.820Z,1020.95
2023-05-17T08:14:00.387Z,1020.97
2023-05-17T08:14:59.951Z,1020.99
2023-05-17T08:16:08.915Z,1020.95
2023-05-17T08:17:01.047Z,1021.03
2023-05-17T08:18:03.744Z,1020.98
2023-05-17T08:19:01.155Z,1020.99
2023-05-17T08:20:02.365Z,1021.04
2023-05-17T08:21:02.897Z,1020.95
2023-05-17T08:22:01.086Z,1020.94
2023-05-17T08:23:01.462Z,1020.93
2023-05-17T08:24:03.336Z,1020.99
2023-05-17T08:25:02.211Z,1020.97
2023-05-17T08:26:01.118Z,1020.97
2023-05-17T08:27:01.109Z,1020.99
2023-05-17T08:28:01.109Z,1021.01
2023-05-17T08:29:01.153Z,1021.01
2023-05-17T08:30:01.273Z,1021.03
2023-05-17T08:31:01.223Z,1020.97
2023-05-17T08:32:01.188Z,1020.96
2023-05-17T08:33:02.582Z,1021.01
2023-05-17T08:34:01.386Z,1020.97
2023-05-17T08:35:01.300Z,1020.97
2023-05-17T08:36:01.673Z,1021.02
2023-05-17T08:37:01.373Z,1020.96
2023-05-17T08:38:01.131Z,1020.94
2023-05-17T08:39:00.870Z,1020.97
2023-05-17T08:40:01.138Z,1020.91
2023-05-17T08:41:01.082Z,1020.85
2023-05-17T08:42:01.026Z,1020.83
2023-05-17T08:43:01.481Z,1020.87
2023-05-17T08:44:01.128Z,1020.88
2023-05-17T08:45:01.116Z,1020.85
2023-05-17T08:46:01.038Z,1020.91
2023-05-17T08:47:01.042Z,1020.86
2023-05-17T08:48:01.092Z,1020.9
2023-05-17T08:49:01.277Z,1020.84
2023-05-17T08:50:02.512Z,1020.83
2023-05-17T08:51:02.626Z,1020.83
2023-05-17T08:52:01.437Z,1020.78
2023-05-17T08:53:01.176Z,1020.76
2023-05-17T08:54:01.079Z,1020.78
2023-05-17T08:55:01.093Z,1020.72
2023-05-17T08:56:04.020Z,1020.75
2023-05-17T08:57:01.893Z,1020.79
2023-05-17T08:58:01.097Z,1020.76
2023-05-17T08:59:01.096Z,1020.78
2023-05-17T09:00:01.183Z,1020.77
2023-05-17T09:01:06.430Z,1020.77
2023-05-17T09:02:02.186Z,1020.74
2023-05-17T09:03:01.091Z,1020.74
2023-05-17T09:04:01.039Z,1020.76
2023-05-17T09:05:01.408Z,1020.75
2023-05-17T09:06:09.152Z,1020.74
2023-05-17T09:07:02.625Z,1020.8
2023-05-17T09:08:01.140Z,1020.71
2023-05-17T09:09:01.643Z,1020.66
2023-05-17T09:10:02.110Z,1020.68
2023-05-17T09:11:12.609Z,1020.65
2023-05-17T09:12:01.770Z,1020.65
2023-05-17T09:13:01.290Z,1020.71
2023-05-17T09:14:01.420Z,1020.77
2023-05-17T09:15:01.934Z,1020.76
2023-05-17T09:16:15.844Z,1020.76
2023-05-17T09:17:01.008Z,1020.84
2023-05-17T09:18:01.217Z,1020.79
2023-05-17T09:19:01.228Z,1020.81
2023-05-17T09:20:02.203Z,1020.77
2023-05-17T09:21:01.045Z,1020.77
2023-05-17T09:22:01.069Z,1020.77
2023-05-17T09:23:01.044Z,1020.79
2023-05-17T09:24:06.970Z,1020.8
2023-05-17T09:25:01.075Z,1020.71
2023-05-17T09:26:01.074Z,1020.74
2023-05-17T09:27:01.081Z,1020.7
2023-05-17T09:28:01.075Z,1020.73
2023-05-17T09:29:01.037Z,1020.7
2023-05-17T09:30:01.112Z,1020.71
2023-05-17T09:31:01.097Z,1020.73
2023-05-17T09:32:01.103Z,1020.75
2023-05-17T09:33:00.806Z,1020.75
2023-05-17T09:34:00.431Z,1020.71
2023-05-17T09:35:00.080Z,1020.75
2023-05-17T09:35:59.754Z,1020.78
2023-05-17T09:37:01.434Z,1020.75
2023-05-17T09:38:01.429Z,1020.79
2023-05-17T09:39:01.177Z,1020.79
2023-05-17T09:40:00.838Z,1020.78
2023-05-17T09:41:00.573Z,1020.76
2023-05-17T09:42:00.246Z,1020.76
2023-05-17T09:43:00.124Z,1020.79
2023-05-17T09:44:00.144Z,1020.77
2023-05-17T09:45:00.294Z,1020.78
2023-05-17T09:46:00.148Z,1020.85
2023-05-17T09:46:59.752Z,1020.82
2023-05-17T09:48:01.456Z,1020.82
2023-05-17T09:49:01.260Z,1020.72
2023-05-17T09:50:02.356Z,1020.74
2023-05-17T09:51:01.037Z,1020.78
2023-05-17T09:52:01.048Z,1020.76
2023-05-17T09:53:00.860Z,1020.77
2023-05-17T09:54:01.434Z,1020.88
2023-05-17T09:55:02.442Z,1020.89
2023-05-17T09:56:01.072Z,1020.82
2023-05-17T09:57:01.137Z,1020.87
2023-05-17T09:58:01.083Z,1020.85
2023-05-17T09:59:01.150Z,1020.85
2023-05-17T10:00:01.108Z,1020.9
2023-05-17T10:01:01.097Z,1020.95
2023-05-17T10:02:00.801Z,1020.97
2023-05-17T10:03:00.436Z,1020.93
2023-05-17T10:04:02.915Z,1020.9
2023-05-17T10:05:02.350Z,1020.98
2023-05-17T10:06:01.945Z,1020.96
2023-05-17T10:07:01.059Z,1020.94
2023-05-17T10:08:01.055Z,1020.94
2023-05-17T10:09:01.356Z,1020.92
2023-05-17T10:10:01.365Z,1020.96
2023-05-17T10:11:02.183Z,1021
2023-05-17T10:12:01.474Z,1020.98
2023-05-17T10:13:01.089Z,1020.99
2023-05-17T10:14:01.080Z,1020.99
2023-05-17T10:15:01.073Z,1020.97
2023-05-17T10:16:01.114Z,1020.94
2023-05-17T10:17:01.102Z,1020.91
2023-05-17T10:18:01.071Z,1021
2023-05-17T10:19:01.204Z,1021.02
2023-05-17T10:20:01.241Z,1021.05
2023-05-17T10:21:01.954Z,1020.99
2023-05-17T10:22:21.244Z,1020.95
2023-05-17T10:23:01.082Z,1020.95
2023-05-17T10:24:01.047Z,1020.88
2023-05-17T10:25:01.068Z,1020.94
2023-05-17T10:26:01.073Z,1020.96
2023-05-17T10:27:01.064Z,1020.99
2023-05-17T10:28:01.392Z,1020.98
2023-05-17T10:29:01.126Z,1020.99
2023-05-17T10:30:01.202Z,1021.08
2023-05-17T10:31:02.122Z,1021.05
2023-05-17T10:32:02.114Z,1021.03
2023-05-17T10:33:01.595Z,1021.01
2023-05-17T10:34:01.829Z,1021
2023-05-17T10:35:10.570Z,1020.97
2023-05-17T10:36:01.433Z,1021.04
2023-05-17T10:37:01.129Z,1021.05
2023-05-17T10:38:01.041Z,1020.97
2023-05-17T10:39:01.253Z,1021.04
2023-05-17T10:40:01.260Z,1021.04
2023-05-17T10:41:02.258Z,1021.04
2023-05-17T10:42:13.416Z,1021.1
2023-05-17T10:43:01.988Z,1021.04
2023-05-17T10:44:01.787Z,1021.01
2023-05-17T10:45:01.071Z,1021.04
2023-05-17T10:46:01.080Z,1021.01
2023-05-17T10:47:05.576Z,1021.01
2023-05-17T10:48:01.347Z,1021.01
2023-05-17T10:49:02.081Z,1020.97
2023-05-17T10:50:01.923Z,1021.06
2023-05-17T10:51:02.026Z,1021.06
2023-05-17T10:52:09.097Z,1021.03
2023-05-17T10:53:00.971Z,1021.05
2023-05-17T10:54:01.143Z,1021.07
2023-05-17T10:55:01.050Z,1021.03
2023-05-17T10:56:01.052Z,1020.99
2023-05-17T10:57:11.362Z,1020.99
2023-05-17T10:58:01.897Z,1021
2023-05-17T10:59:01.063Z,1021.01
2023-05-17T11:00:01.065Z,1020.99
2023-05-17T11:01:01.105Z,1021.04
2023-05-17T11:02:14.871Z,1021.02
2023-05-17T11:03:01.820Z,1021.04
2023-05-17T11:04:01.316Z,1021.02
2023-05-17T11:05:01.212Z,1021.04
2023-05-17T11:06:02.079Z,1021
2023-05-17T11:07:03.797Z,1021
2023-05-17T11:08:01.123Z,1020.91
2023-05-17T11:09:01.116Z,1020.98
2023-05-17T11:10:01.031Z,1020.99
2023-05-17T11:11:01.043Z,1020.95
2023-05-17T11:12:01.160Z,1020.91
2023-05-17T11:13:00.726Z,1020.98
2023-05-17T11:14:00.690Z,1021
2023-05-17T11:15:00.232Z,1020.95
2023-05-17T11:15:59.929Z,1020.94
2023-05-17T11:16:59.532Z,1020.88
2023-05-17T11:18:01.915Z,1020.9
2023-05-17T11:19:01.972Z,1020.88
2023-05-17T11:20:01.264Z,1020.85
2023-05-17T11:21:01.772Z,1020.89
2023-05-17T11:22:02.133Z,1020.88
2023-05-17T11:23:01.045Z,1020.89
2023-05-17T11:24:01.504Z,1020.88
2023-05-17T11:25:01.124Z,1020.82
2023-05-17T11:26:12.775Z,1020.87
2023-05-17T11:27:00.722Z,1020.84
2023-05-17T11:28:00.374Z,1020.86
2023-05-17T11:29:00.054Z,1020.84
2023-05-17T11:29:59.715Z,1020.85
2023-05-17T11:31:01.474Z,1020.85
2023-05-17T11:32:01.084Z,1020.86
2023-05-17T11:33:01.052Z,1020.85
2023-05-17T11:34:01.114Z,1020.78
2023-05-17T11:35:01.136Z,1020.84
2023-05-17T11:36:01.109Z,1020.89
2023-05-17T11:37:01.099Z,1020.9
2023-05-17T11:38:01.505Z,1020.93
2023-05-17T11:40:01.710Z,1020.88
2023-05-17T11:41:01.309Z,1020.75
2023-05-17T11:42:01.033Z,1020.81
2023-05-17T11:43:01.035Z,1020.88
2023-05-17T11:44:01.232Z,1020.88
2023-05-17T11:45:01.328Z,1020.94
2023-05-17T11:46:01.965Z,1020.94
2023-05-17T11:47:01.123Z,1021.03
2023-05-17T11:48:01.133Z,1021.01
2023-05-17T11:49:01.895Z,1021.02
2023-05-17T11:50:02.403Z,1021
2023-05-17T11:51:02.414Z,1021.01
2023-05-17T11:52:01.508Z,1020.98
2023-05-17T11:53:01.208Z,1020.98
2023-05-17T11:54:03.969Z,1020.92
2023-05-17T11:55:00.905Z,1021.02
2023-05-17T11:56:01.144Z,1020.98
2023-05-17T11:57:00.736Z,1020.97
2023-05-17T11:58:00.317Z,1020.93
2023-05-17T11:59:00.162Z,1020.91
2023-05-17T11:59:59.788Z,1020.93
2023-05-17T12:01:02.084Z,1020.99
2023-05-17T12:02:01.077Z,1021.02
2023-05-17T12:03:01.059Z,1021.03
2023-05-17T12:04:01.225Z,1021.04
2023-05-17T12:05:01.525Z,1021.08
2023-05-17T12:06:01.127Z,1021.04
2023-05-17T12:07:01.043Z,1021.02
2023-05-17T12:08:01.099Z,1020.98
2023-05-17T12:09:01.022Z,1020.93
2023-05-17T12:10:01.101Z,1020.95